createdAt,value
2023-04-18T09:16:06.479Z,15.36
2023-04-18T09:18:35.417Z,15.59
2023-04-18T09:21:18.721Z,15.64
2023-04-18T09:23:50.502Z,15.69
2023-04-18T09:26:34.150Z,15.71
2023-04-18T09:29:03.385Z,15.68
2023-04-18T09:31:33.062Z,15.68
2023-04-18T09:34:03.153Z,15.67
2023-04-18T09:36:32.404Z,15.65
2023-04-18T09:39:00.859Z,15.64
2023-04-18T09:41:31.092Z,15.62
2023-04-18T09:44:14.338Z,15.59
2023-04-18T09:46:47.435Z,15.56
2023-04-18T09:49:17.120Z,15.50
2023-04-18T09:51:46.413Z,15.41
2023-04-18T09:54:15.961Z,15.34
2023-04-18T09:56:44.977Z,15.27
2023-04-18T09:59:13.430Z,15.20
2023-04-18T10:01:41.878Z,15.13
2023-04-18T10:04:10.103Z,15.06
2023-04-18T10:06:40.059Z,15.02
2023-04-18T10:09:08.893Z,14.97
2023-04-18T10:11:37.122Z,14.93
2023-04-18T10:14:08.012Z,14.89
2023-04-18T10:16:36.541Z,14.87
2023-04-18T10:19:27.206Z,14.82
2023-04-18T10:21:56.784Z,14.74
2023-04-18T10:24:48.415Z,14.69
2023-04-18T10:27:17.077Z,14.63
2023-04-18T10:29:52.907Z,14.55
2023-04-18T10:32:24.929Z,14.46
2023-04-18T10:34:53.999Z,14.35
2023-04-18T10:37:22.216Z,14.20
2023-04-18T10:40:00.478Z,14.07
2023-04-18T10:42:47.734Z,13.93
2023-04-18T10:45:19.700Z,13.80
2023-04-18T10:47:48.586Z,13.66
2023-04-18T10:50:17.022Z,13.56
2023-04-18T10:52:45.188Z,13.47
2023-04-18T10:55:16.635Z,13.36
2023-04-18T10:57:48.711Z,13.27
2023-04-18T11:00:18.470Z,13.18
2023-04-18T11:02:52.091Z,13.09
2023-04-18T11:05:23.979Z,13.00
2023-04-18T11:07:52.765Z,12.90
2023-04-18T11:10:26.689Z,12.81
2023-04-18T11:12:55.527Z,12.72
2023-04-18T11:15:25.256Z,12.64
2023-04-18T11:18:00.867Z,12.57
2023-04-18T11:20:30.389Z,12.49
2023-04-18T11:22:59.962Z,12.42
2023-04-18T11:25:32.635Z,12.34
2023-04-18T11:28:02.383Z,12.24
2023-04-18T11:30:38.175Z,12.13
2023-04-18T11:33:11.488Z,12.04
2023-04-18T11:35:46.252Z,11.99
2023-04-18T11:38:15.227Z,11.94
2023-04-18T11:40:50.081Z,11.90
2023-04-18T11:43:22.953Z,11.85
2023-04-18T11:45:59.014Z,11.81
2023-04-18T11:48:45.409Z,11.79
2023-04-18T11:51:38.887Z,11.83
2023-04-18T11:54:28.296Z,11.85
2023-04-18T11:56:57.739Z,11.85
2023-04-18T11:59:26.333Z,11.83
2023-04-18T12:02:15.532Z,11.78
2023-04-18T12:04:58.576Z,11.75
2023-04-18T12:07:44.107Z,11.70
2023-04-18T12:10:29.588Z,11.67
2023-04-18T12:12:58.965Z,11.65
2023-04-18T12:15:28.716Z,11.63
2023-04-18T12:17:59.737Z,11.58
2023-04-18T12:20:46.364Z,11.55
2023-04-18T12:23:35.621Z,11.55
2023-04-18T12:26:05.807Z,11.57
2023-04-18T12:28:36.289Z,11.59
2023-04-18T12:31:07.785Z,11.61
2023-04-18T12:33:36.889Z,11.64
2023-04-18T12:36:06.168Z,11.67
2023-04-18T12:38:35.195Z,11.68
2023-04-18T12:41:03.743Z,11.70
2023-04-18T12:43:31.931Z,11.72
2023-04-18T12:46:00.117Z,11.68
2023-04-18T12:48:28.338Z,11.61
2023-04-18T12:50:56.509Z,11.55
2023-04-18T12:53:24.916Z,11.49
2023-04-18T12:55:53.029Z,11.49
2023-04-18T12:58:21.689Z,11.50
2023-04-18T13:00:50.253Z,11.53
2023-04-18T13:03:18.995Z,11.57
2023-04-18T13:05:47.460Z,11.61
2023-04-18T13:08:18.210Z,11.65
2023-04-18T13:10:48.684Z,11.68
2023-04-18T13:13:17.532Z,11.69
2023-04-18T13:15:45.976Z,11.69
2023-04-18T13:18:14.202Z,11.70
2023-04-18T13:20:42.600Z,11.70
2023-04-18T13:23:11.129Z,11.70
2023-04-18T13:25:40.085Z,11.69
2023-04-18T13:28:08.673Z,11.68
2023-04-18T13:30:36.811Z,11.66
2023-04-18T13:33:05.557Z,11.63
2023-04-18T13:35:33.763Z,11.64
2023-04-18T13:38:10.888Z,11.65
2023-04-18T13:40:39.112Z,11.66
2023-04-18T13:43:07.350Z,11.67
2023-04-18T13:45:35.730Z,11.70
2023-04-18T13:48:04.259Z,11.73
2023-04-18T13:50:32.512Z,11.78
2023-04-18T13:53:00.656Z,11.84
2023-04-18T13:55:29.007Z,11.96
2023-04-18T13:57:57.400Z,12.13
2023-04-18T14:00:25.725Z,12.44
2023-04-18T14:02:55.518Z,12.99
2023-04-18T14:05:23.909Z,13.61
2023-04-18T14:07:52.170Z,14.16
2023-04-18T14:10:21.859Z,14.71
2023-04-18T14:12:51.354Z,15.08
2023-04-18T14:15:19.615Z,15.22
2023-04-18T14:17:47.843Z,15.17
2023-04-18T14:20:19.335Z,15.03
2023-04-18T14:22:50.924Z,14.84
2023-04-18T14:25:20.744Z,14.63
2023-04-18T14:27:48.965Z,14.44
2023-04-18T14:30:19.588Z,14.24
2023-04-18T14:32:47.786Z,14.04
2023-04-18T14:35:16.118Z,13.86
2023-04-18T14:37:44.356Z,13.69
2023-04-18T14:40:12.568Z,13.52
2023-04-18T14:42:41.007Z,13.35
2023-04-18T14:45:11.323Z,13.19
2023-04-18T14:47:43.014Z,13.04
2023-04-18T14:50:12.141Z,12.90
2023-04-18T14:52:41.186Z,12.76
2023-04-18T14:55:09.850Z,12.64
2023-04-18T14:57:39.002Z,12.54
2023-04-18T15:00:11.350Z,12.45
2023-04-18T15:02:40.332Z,12.35
2023-04-18T15:05:10.284Z,12.27
2023-04-18T15:07:39.005Z,12.21
2023-04-18T15:10:18.792Z,12.15
2023-04-18T15:12:55.645Z,12.07
2023-04-18T15:15:25.422Z,12.01
2023-04-18T15:17:54.556Z,11.96
2023-04-18T15:20:26.679Z,11.92
2023-04-18T15:22:56.930Z,11.89
2023-04-18T15:25:26.340Z,11.86
2023-04-18T15:27:54.688Z,11.84
2023-04-18T15:30:23.262Z,11.81
2023-04-18T15:32:52.355Z,11.79
2023-04-18T15:35:21.134Z,11.76
2023-04-18T15:37:49.474Z,11.73
2023-04-18T15:40:18.528Z,11.69
2023-04-18T15:42:49.520Z,11.67
2023-04-18T15:45:17.820Z,11.64
2023-04-18T15:47:46.253Z,11.61
2023-04-18T15:50:16.505Z,11.58
2023-04-18T15:52:44.949Z,11.55
2023-04-18T15:55:13.477Z,11.52
2023-04-18T15:57:41.963Z,11.50
2023-04-18T16:00:17.779Z,11.49
2023-04-18T16:02:46.674Z,11.48
2023-04-18T16:05:15.476Z,11.46
2023-04-18T16:07:44.098Z,11.44
2023-04-18T16:10:13.001Z,11.43
2023-04-18T16:12:41.876Z,11.41
2023-04-18T16:15:10.627Z,11.39
2023-04-18T16:17:38.980Z,11.37
2023-04-18T16:20:09.247Z,11.36
2023-04-18T16:22:37.992Z,11.33
2023-04-18T16:25:06.885Z,11.30
2023-04-18T16:27:35.487Z,11.26
2023-04-18T16:30:04.117Z,11.23
2023-04-18T16:32:33.349Z,11.20
2023-04-18T16:35:01.880Z,11.16
2023-04-18T16:37:31.044Z,11.11
2023-04-18T16:39:59.382Z,11.09
2023-04-18T16:42:27.588Z,11.07
2023-04-18T16:44:55.906Z,11.04
2023-04-18T16:47:24.343Z,11.01
2023-04-18T16:49:52.940Z,10.98
2023-04-18T16:52:22.141Z,10.95
2023-04-18T16:54:52.431Z,10.93
2023-04-18T16:57:21.007Z,10.91
2023-04-18T16:59:49.263Z,10.89
2023-04-18T17:02:17.694Z,10.88
2023-04-18T17:04:46.264Z,10.88
2023-04-18T17:07:14.520Z,10.86
2023-04-18T17:09:44.709Z,10.84
2023-04-18T17:12:14.583Z,10.83
2023-04-18T17:14:42.763Z,10.84
2023-04-18T17:17:11.020Z,10.86
2023-04-18T17:19:40.382Z,10.87
2023-04-18T17:22:08.655Z,10.88
2023-04-18T17:24:36.960Z,10.91
2023-04-18T17:27:05.103Z,10.91
2023-04-18T17:29:33.571Z,10.91
2023-04-18T17:32:02.165Z,10.90
2023-04-18T17:34:31.029Z,10.90
2023-04-18T17:36:59.299Z,10.88
2023-04-18T17:39:27.701Z,10.85
2023-04-18T17:41:56.006Z,10.83
2023-04-18T17:44:24.266Z,10.82
2023-04-18T17:46:52.651Z,10.78
2023-04-18T17:49:21.394Z,10.76
2023-04-18T17:51:49.645Z,10.74
2023-04-18T17:54:18.073Z,10.72
2023-04-18T17:56:46.395Z,10.70
2023-04-18T17:59:15.931Z,10.67
2023-04-18T18:01:45.007Z,10.64
2023-04-18T18:04:16.511Z,10.62
2023-04-18T18:06:54.322Z,10.59
2023-04-18T18:09:25.850Z,10.56
2023-04-18T18:11:55.939Z,10.54
2023-04-18T18:14:24.479Z,10.52
2023-04-18T18:16:52.922Z,10.50
2023-04-18T18:19:21.146Z,10.49
2023-04-18T18:21:49.420Z,10.49
2023-04-18T18:24:18.827Z,10.48
2023-04-18T18:26:47.714Z,10.48
2023-04-18T18:29:16.864Z,10.46
2023-04-18T18:31:45.525Z,10.46
2023-04-18T18:34:14.074Z,10.44
2023-04-18T18:36:42.494Z,10.45
2023-04-18T18:39:14.651Z,10.45
2023-04-18T18:41:43.617Z,10.45
2023-04-18T18:44:11.934Z,10.45
2023-04-18T18:46:41.510Z,10.45
2023-04-18T18:49:11.776Z,10.44
2023-04-18T18:51:41.356Z,10.45
2023-04-18T18:54:09.730Z,10.45
2023-04-18T18:56:39.840Z,10.45
2023-04-18T18:59:11.302Z,10.45
2023-04-18T19:01:39.838Z,10.46
2023-04-18T19:04:08.463Z,10.45
2023-04-18T19:06:37.082Z,10.46
2023-04-18T19:09:05.583Z,10.46
2023-04-18T19:11:34.520Z,10.47
2023-04-18T19:14:03.719Z,10.47
2023-04-18T19:16:34.111Z,10.49
2023-04-18T19:19:02.498Z,10.49
2023-04-18T19:21:33.552Z,10.50
2023-04-18T19:24:03.858Z,10.52
2023-04-18T19:26:33.009Z,10.53
2023-04-18T19:29:01.441Z,10.54
2023-04-18T19:31:32.491Z,10.55
2023-04-18T19:34:01.989Z,10.55
2023-04-18T19:36:32.052Z,10.55
2023-04-18T19:39:00.771Z,10.56
2023-04-18T19:41:29.312Z,10.56
2023-04-18T19:44:03.840Z,10.56
2023-04-18T19:46:33.063Z,10.57
2023-04-18T19:49:01.728Z,10.57
2023-04-18T19:51:30.128Z,10.58
2023-04-18T19:53:59.098Z,10.59
2023-04-18T19:56:46.732Z,10.59
2023-04-18T19:59:16.009Z,10.59
2023-04-18T20:01:44.720Z,10.60
2023-04-18T20:04:13.844Z,10.60
2023-04-18T20:06:46.951Z,10.60
2023-04-18T20:09:17.082Z,10.60
2023-04-18T20:11:48.768Z,10.59
2023-04-18T20:14:19.209Z,10.60
2023-04-18T20:16:50.121Z,10.59
2023-04-18T20:19:19.623Z,10.59
2023-04-18T20:21:48.969Z,10.58
2023-04-18T20:24:21.134Z,10.58
2023-04-18T20:26:51.571Z,10.57
2023-04-18T20:29:20.487Z,10.56
2023-04-18T20:31:48.821Z,10.56
2023-04-18T20:34:17.108Z,10.55
2023-04-18T20:36:46.628Z,10.55
2023-04-18T20:39:18.241Z,10.54
2023-04-18T20:41:50.946Z,10.53
2023-04-18T20:44:23.568Z,10.52
2023-04-18T20:46:54.955Z,10.50
2023-04-18T20:49:27.703Z,10.49
2023-04-18T20:51:56.329Z,10.48
2023-04-18T20:54:25.381Z,10.48
2023-04-18T20:56:56.676Z,10.47
2023-04-18T20:59:25.167Z,10.46
2023-04-18T21:01:53.510Z,10.45
2023-04-18T21:04:21.904Z,10.44
2023-04-18T21:06:50.779Z,10.43
2023-04-18T21:09:19.001Z,10.43
2023-04-18T21:11:47.276Z,10.41
2023-04-18T21:14:17.390Z,10.39
2023-04-18T21:16:46.307Z,10.39
2023-04-18T21:19:14.562Z,10.38
2023-04-18T21:21:42.827Z,10.37
2023-04-18T21:24:11.324Z,10.34
2023-04-18T21:26:39.853Z,10.33
2023-04-18T21:29:08.190Z,10.31
2023-04-18T21:31:38.262Z,10.28
2023-04-18T21:34:06.572Z,10.25
2023-04-18T21:36:35.175Z,10.23
2023-04-18T21:39:04.184Z,10.21
2023-04-18T21:41:32.934Z,10.20
2023-04-18T21:44:01.300Z,10.19
2023-04-18T21:46:29.733Z,10.19
2023-04-18T21:48:57.962Z,10.20
2023-04-18T21:51:27.316Z,10.19
2023-04-18T21:53:55.553Z,10.18
2023-04-18T21:56:23.711Z,10.18
2023-04-18T21:58:52.312Z,10.17
2023-04-18T22:01:20.542Z,10.18
2023-04-18T22:03:49.444Z,10.17
2023-04-18T22:06:18.083Z,10.15
2023-04-18T22:08:46.324Z,10.11
2023-04-18T22:11:15.757Z,10.08
2023-04-18T22:13:46.032Z,10.07
2023-04-18T22:16:14.301Z,10.04
2023-04-18T22:18:42.547Z,10.01
2023-04-18T22:21:10.865Z,9.98
2023-04-18T22:23:39.252Z,9.96
2023-04-18T22:26:15.128Z,9.95
2023-04-18T22:28:49.449Z,9.93
2023-04-18T22:31:22.577Z,9.89
2023-04-18T22:33:51.180Z,9.84
2023-04-18T22:36:19.372Z,9.81
2023-04-18T22:38:47.524Z,9.79
2023-04-18T22:41:15.860Z,9.76
2023-04-18T22:43:45.292Z,9.75
2023-04-18T22:46:13.556Z,9.75
2023-04-18T22:48:41.826Z,9.73
2023-04-18T22:51:11.195Z,9.68
2023-04-18T22:53:39.901Z,9.63
2023-04-18T22:56:08.140Z,9.59
2023-04-18T22:58:36.736Z,9.55
2023-04-18T23:01:05.086Z,9.52
2023-04-18T23:03:36.391Z,9.50
2023-04-18T23:06:07.495Z,9.48
2023-04-18T23:08:36.381Z,9.47
2023-04-18T23:11:04.609Z,9.48
2023-04-18T23:13:32.834Z,9.48
2023-04-18T23:16:01.082Z,9.48
2023-04-18T23:18:30.330Z,9.46
2023-04-18T23:21:00.032Z,9.44
2023-04-18T23:23:28.504Z,9.43
2023-04-18T23:25:56.972Z,9.40
2023-04-18T23:28:25.338Z,9.38
2023-04-18T23:30:53.507Z,9.35
2023-04-18T23:33:21.734Z,9.31
2023-04-18T23:35:49.932Z,9.27
2023-04-18T23:38:18.084Z,9.25
2023-04-18T23:40:46.304Z,9.24
2023-04-18T23:43:14.438Z,9.24
2023-04-18T23:45:42.545Z,9.24
2023-04-18T23:48:10.833Z,9.24
2023-04-18T23:50:48.303Z,9.24
2023-04-18T23:53:17.566Z,9.22
2023-04-18T23:55:46.917Z,9.20
2023-04-18T23:58:15.782Z,9.19
